Time;durP1;ratioP1;P1;durP2;ratioP2;P2;SDS_P1;SDS_P2;PMS_P1;PMS_P2;Temp;Humidity;BMP_temperature;BMP_pressure;BME280_temperature;BME280_humidity;BME280_pressure;Samples;Min_cycle;Max_cycle;Signal;HPM_P1;HPM_P2
2021/12/13 00:00:42;;;;;;;168.48;35.70;;;;;;;;;;4981077;28;20045;-86
2021/12/13 00:03:14;;;;;;;171.13;37.03;;;;;;;;;;4972012;28;20085;-87
2021/12/13 00:05:49;;;;;;;160.95;34.92;;;;;;;;;;4957520;28;20070;-87
2021/12/13 00:08:18;;;;;;;165.98;36.80;;;;;;;;;;4990014;28;20045;-86
2021/12/13 00:10:49;;;;;;;198.32;39.92;;;;;;;;;;4973662;28;20046;-87
2021/12/13 00:13:17;;;;;;;209.10;42.03;;;;;;;;;;4969145;28;20124;-86
2021/12/13 00:15:56;;;;;;;172.30;35.97;;;;;;;;;;4975203;28;20043;-86
2021/12/13 00:18:25;;;;;;;191.07;39.33;;;;;;;;;;4972801;28;20047;-86
2021/12/13 00:21:09;;;;;;;182.75;36.97;;;;;;;;;;4985376;28;20042;-86
2021/12/13 00:23:37;;;;;;;157.73;32.97;;;;;;;;;;4981590;28;20407;-87
2021/12/13 00:26:05;;;;;;;195.75;37.63;;;;;;;;;;4977320;28;20034;-86
2021/12/13 00:28:34;;;;;;;184.48;37.80;;;;;;;;;;4978686;28;20093;-86
2021/12/13 00:31:25;;;;;;;183.07;37.20;;;;;;;;;;4980688;28;20038;-87
2021/12/13 00:34:07;;;;;;;193.40;39.55;;;;;;;;;;4968733;28;20066;-87
2021/12/13 00:36:49;;;;;;;167.93;34.60;;;;;;;;;;4965986;28;20038;-88
2021/12/13 00:39:16;;;;;;;186.25;38.05;;;;;;;;;;4969824;28;20394;-87
2021/12/13 00:41:43;;;;;;;158.82;33.17;;;;;;;;;;4981568;28;20487;-86
2021/12/13 00:44:13;;;;;;;187.35;36.85;;;;;;;;;;4982592;28;20081;-87
2021/12/13 00:46:41;;;;;;;131.35;30.65;;;;;;;;;;4973264;28;20121;-87
2021/12/13 00:49:09;;;;;;;147.00;32.20;;;;;;;;;;4981613;28;20445;-87
2021/12/13 00:51:37;;;;;;;122.70;31.92;;;;;;;;;;4977734;28;20138;-88
2021/12/13 00:54:09;;;;;;;133.32;32.00;;;;;;;;;;4970630;28;20081;-86
2021/12/13 00:56:51;;;;;;;90.80;24.65;;;;;;;;;;4984450;28;20364;-87
2021/12/13 00:59:36;;;;;;;101.22;28.95;;;;;;;;;;4976467;28;20462;-86
2021/12/13 01:02:11;;;;;;;84.85;28.42;;;;;;;;;;4980363;28;20053;-87
2021/12/13 01:04:56;;;;;;;100.47;28.92;;;;;;;;;;4969993;28;20050;-86
2021/12/13 01:07:34;;;;;;;104.53;28.45;;;;;;;;;;4972595;28;20487;-86
2021/12/13 01:10:19;;;;;;;94.57;28.27;;;;;;;;;;4978114;28;20042;-85
2021/12/13 01:12:55;;;;;;;89.57;28.35;;;;;;;;;;4978722;28;20561;-86
2021/12/13 01:15:32;;;;;;;80.07;25.55;;;;;;;;;;4979118;28;20108;-87
2021/12/13 01:21:28;;;;;;;88.88;27.98;;;;;;;;;;4968375;28;20450;-86
2021/12/13 01:24:04;;;;;;;81.10;25.42;;;;;;;;;;4973496;28;20086;-86
2021/12/13 01:26:42;;;;;;;72.70;25.75;;;;;;;;;;4971571;28;20142;-87
2021/12/13 01:29:19;;;;;;;92.43;27.77;;;;;;;;;;4978064;28;20039;-86
2021/12/13 01:31:53;;;;;;;97.80;28.10;;;;;;;;;;4968427;28;20042;-86
2021/12/13 01:34:19;;;;;;;90.03;25.45;;;;;;;;;;4978007;28;20041;-85
2021/12/13 01:37:04;;;;;;;96.53;27.58;;;;;;;;;;4970592;28;20062;-86
2021/12/13 01:39:32;;;;;;;99.57;28.40;;;;;;;;;;4968673;28;20074;-86
2021/12/13 01:42:04;;;;;;;101.05;28.63;;;;;;;;;;4966430;28;20684;-87
2021/12/13 01:44:32;;;;;;;110.18;30.95;;;;;;;;;;4970300;28;20042;-87
2021/12/13 01:47:06;;;;;;;100.25;30.10;;;;;;;;;;4968132;28;20069;-87
2021/12/13 01:49:32;;;;;;;;;;;;;;;;;;4978528;28;20038;-86
2021/12/13 01:51:59;;;;;;;103.03;28.60;;;;;;;;;;4977371;28;19933;-86
2021/12/13 01:54:25;;;;;;;117.82;32.22;;;;;;;;;;4983938;28;20058;-86
2021/12/13 01:57:21;;;;;;;125.15;31.90;;;;;;;;;;4978393;28;20136;-87
2021/12/13 01:59:49;;;;;;;133.77;33.60;;;;;;;;;;4983581;28;20070;-87
2021/12/13 02:02:27;;;;;;;115.72;32.28;;;;;;;;;;4983018;28;20046;-87
2021/12/13 02:04:56;;;;;;;119.10;33.80;;;;;;;;;;4956913;28;20076;-86
2021/12/13 02:07:23;;;;;;;126.35;34.45;;;;;;;;;;4981028;28;20557;-86
2021/12/13 02:09:50;;;;;;;117.00;32.28;;;;;;;;;;4969894;28;20125;-86
2021/12/13 02:12:17;;;;;;;115.00;34.20;;;;;;;;;;4968853;28;20217;-85
2021/12/13 02:17:40;;;;;;;106.70;30.20;;;;;;;;;;4975020;28;20494;-85
2021/12/13 02:20:10;;;;;;;101.40;29.80;;;;;;;;;;4969600;28;20082;-86
2021/12/13 02:22:46;;;;;;;113.28;33.45;;;;;;;;;;4962534;28;20042;-86
2021/12/13 02:25:19;;;;;;;108.38;31.35;;;;;;;;;;4973984;28;20081;-86
2021/12/13 02:27:50;;;;;;;95.38;28.80;;;;;;;;;;4965549;28;20442;-86
2021/12/13 02:30:19;;;;;;;109.32;31.83;;;;;;;;;;4980532;28;20089;-85
2021/12/13 02:32:46;;;;;;;92.85;29.77;;;;;;;;;;4968027;28;20045;-86
2021/12/13 02:35:12;;;;;;;90.57;29.27;;;;;;;;;;4971670;28;20039;-85
2021/12/13 02:37:41;;;;;;;91.10;28.90;;;;;;;;;;4974042;28;20050;-85
2021/12/13 02:40:09;;;;;;;74.28;23.05;;;;;;;;;;4974182;28;20054;-85
2021/12/13 02:42:35;;;;;;;86.65;27.33;;;;;;;;;;4979728;28;20043;-85
2021/12/13 02:45:12;;;;;;;92.75;29.98;;;;;;;;;;4983658;28;20050;-85
2021/12/13 02:47:40;;;;;;;84.20;28.25;;;;;;;;;;4967791;28;20149;-85
2021/12/13 02:50:10;;;;;;;84.50;28.85;;;;;;;;;;4976224;28;20046;-86
2021/12/13 02:52:39;;;;;;;87.47;29.58;;;;;;;;;;4972621;28;20450;-86
2021/12/13 02:55:09;;;;;;;78.03;27.70;;;;;;;;;;4968302;28;20376;-86
2021/12/13 02:57:38;;;;;;;83.63;30.15;;;;;;;;;;4967716;28;20526;-86
2021/12/13 03:00:07;;;;;;;90.72;30.35;;;;;;;;;;4972960;28;20050;-86
2021/12/13 03:02:36;;;;;;;93.93;30.63;;;;;;;;;;4969021;28;20086;-86
2021/12/13 03:05:03;;;;;;;91.53;30.77;;;;;;;;;;4986159;28;20090;-85
2021/12/13 03:07:30;;;;;;;85.07;27.88;;;;;;;;;;4984580;28;21362;-85
2021/12/13 03:09:57;;;;;;;89.55;27.90;;;;;;;;;;4990431;28;20057;-85
2021/12/13 03:12:24;;;;;;;94.28;32.03;;;;;;;;;;4970937;28;20050;-86
2021/12/13 03:14:59;;;;;;;96.20;31.73;;;;;;;;;;4976725;28;20043;-85
2021/12/13 03:17:33;;;;;;;91.35;28.77;;;;;;;;;;4972867;28;20882;-85
2021/12/13 03:19:59;;;;;;;;;;;;;;;;;;4977501;28;20449;-85
2021/12/13 03:22:34;;;;;;;87.70;29.13;;;;;;;;;;4979921;28;19922;-86
2021/12/13 03:25:00;;;;;;;94.78;32.05;;;;;;;;;;4999374;28;20073;-84
2021/12/13 03:27:32;;;;;;;105.38;34.30;;;;;;;;;;4970525;28;20070;-85
2021/12/13 03:29:58;;;;;;;85.95;29.60;;;;;;;;;;4976716;28;20377;-84
2021/12/13 03:32:31;;;;;;;88.78;29.50;;;;;;;;;;4982816;28;20402;-85
2021/12/13 03:35:04;;;;;;;98.00;33.92;;;;;;;;;;4968276;28;20092;-84
2021/12/13 03:37:30;;;;;;;86.75;31.60;;;;;;;;;;4972188;28;20446;-84
2021/12/13 03:39:59;;;;;;;95.28;33.15;;;;;;;;;;4974415;28;20038;-84
2021/12/13 03:42:25;;;;;;;89.80;30.30;;;;;;;;;;4985731;28;20057;-85
2021/12/13 03:44:53;;;;;;;92.75;31.60;;;;;;;;;;4973838;28;20502;-86
2021/12/13 03:47:27;;;;;;;82.10;28.13;;;;;;;;;;4972989;28;20051;-86
2021/12/13 03:49:55;;;;;;;88.32;29.58;;;;;;;;;;4983835;28;20038;-86
2021/12/13 03:52:24;;;;;;;96.10;33.17;;;;;;;;;;4972017;28;20082;-85
2021/12/13 03:54:52;;;;;;;94.03;32.40;;;;;;;;;;4974147;28;20499;-85
2021/12/13 03:57:19;;;;;;;84.20;28.85;;;;;;;;;;4970030;28;20041;-86
2021/12/13 03:59:46;;;;;;;70.63;28.88;;;;;;;;;;4984706;28;20054;-85
2021/12/13 04:02:16;;;;;;;85.00;30.15;;;;;;;;;;4973080;28;20118;-86
2021/12/13 04:04:44;;;;;;;85.68;28.52;;;;;;;;;;4974690;28;20050;-85
2021/12/13 04:07:21;;;;;;;79.07;29.52;;;;;;;;;;4987966;28;20035;-86
2021/12/13 04:09:48;;;;;;;68.68;25.23;;;;;;;;;;4976786;28;20100;-86
2021/12/13 04:12:16;;;;;;;79.45;27.70;;;;;;;;;;4986904;28;20034;-85
2021/12/13 04:14:50;;;;;;;74.05;26.00;;;;;;;;;;4987217;28;20038;-85
2021/12/13 04:17:21;;;;;;;;;;;;;;;;;;4971131;28;20044;-85
2021/12/13 04:19:47;;;;;;;71.00;27.75;;;;;;;;;;4968760;28;19922;-85
2021/12/13 04:22:14;;;;;;;85.75;30.30;;;;;;;;;;4975707;28;20113;-85
2021/12/13 04:24:46;;;;;;;79.68;30.50;;;;;;;;;;4974981;28;20133;-85
2021/12/13 04:27:24;;;;;;;74.38;27.40;;;;;;;;;;4967240;28;20491;-85
2021/12/13 04:29:52;;;;;;;84.28;30.23;;;;;;;;;;4980484;28;20097;-85
2021/12/13 04:32:26;;;;;;;75.60;31.02;;;;;;;;;;4978387;28;20128;-85
2021/12/13 04:34:54;;;;;;;72.03;30.05;;;;;;;;;;4969191;28;20105;-85
2021/12/13 04:37:22;;;;;;;80.25;29.67;;;;;;;;;;4973209;28;20047;-85
2021/12/13 04:39:54;;;;;;;66.50;28.60;;;;;;;;;;4977014;28;20042;-85
2021/12/13 04:42:21;;;;;;;64.20;28.02;;;;;;;;;;4974904;28;20092;-86
2021/12/13 04:44:50;;;;;;;61.35;26.45;;;;;;;;;;4978591;28;20051;-85
2021/12/13 04:47:18;;;;;;;62.08;24.52;;;;;;;;;;4977575;28;20042;-83
2021/12/13 04:49:46;;;;;;;57.67;26.27;;;;;;;;;;4983018;28;20076;-86
2021/12/13 04:52:17;;;;;;;46.08;23.42;;;;;;;;;;4975319;28;20070;-85
2021/12/13 04:54:46;;;;;;;56.67;21.38;;;;;;;;;;4978633;28;20113;-88
2021/12/13 04:57:13;;;;;;;50.95;23.52;;;;;;;;;;4963561;28;20146;-85
2021/12/13 04:59:39;;;;;;;44.53;18.77;;;;;;;;;;4973341;28;20035;-87
2021/12/13 05:02:07;;;;;;;48.92;20.48;;;;;;;;;;4982479;28;20050;-85
2021/12/13 05:04:33;;;;;;;47.15;18.17;;;;;;;;;;4979468;28;20615;-85
2021/12/13 05:07:01;;;;;;;43.75;16.77;;;;;;;;;;4981393;28;20051;-84
2021/12/13 05:09:35;;;;;;;37.38;16.80;;;;;;;;;;4973321;28;20053;-85
2021/12/13 05:12:15;;;;;;;38.88;17.92;;;;;;;;;;4977773;28;20468;-86
2021/12/13 05:14:41;;;;;;;37.10;18.27;;;;;;;;;;4968687;28;20051;-85
2021/12/13 05:17:10;;;;;;;32.63;14.98;;;;;;;;;;4974288;28;20050;-85
2021/12/13 05:19:39;;;;;;;35.15;16.30;;;;;;;;;;4978619;28;20615;-85
2021/12/13 05:22:06;;;;;;;36.72;15.98;;;;;;;;;;4978902;28;20857;-84
2021/12/13 05:24:35;;;;;;;35.33;15.68;;;;;;;;;;4978274;28;20038;-85
2021/12/13 05:27:07;;;;;;;27.75;13.82;;;;;;;;;;4973759;28;20530;-84
2021/12/13 05:29:34;;;;;;;34.95;15.10;;;;;;;;;;4974944;28;20046;-85
2021/12/13 05:32:06;;;;;;;32.60;14.60;;;;;;;;;;4967449;28;20042;-85
2021/12/13 05:34:41;;;;;;;26.20;14.18;;;;;;;;;;4973862;28;20371;-84
2021/12/13 05:37:08;;;;;;;24.35;12.38;;;;;;;;;;4977125;28;20050;-85
2021/12/13 05:39:35;;;;;;;24.30;13.25;;;;;;;;;;4970292;28;20043;-86
2021/12/13 05:42:03;;;;;;;27.35;14.27;;;;;;;;;;4972060;28;20058;-85
2021/12/13 05:44:32;;;;;;;23.10;13.18;;;;;;;;;;5002463;28;20045;-87
2021/12/13 05:47:00;;;;;;;29.42;13.75;;;;;;;;;;4987026;28;20170;-86
2021/12/13 05:49:28;;;;;;;23.38;11.95;;;;;;;;;;4980809;28;20408;-86
2021/12/13 05:52:06;;;;;;;21.38;11.10;;;;;;;;;;4972897;28;20068;-85
2021/12/13 05:54:34;;;;;;;24.80;12.65;;;;;;;;;;4974606;28;20510;-85
2021/12/13 05:57:12;;;;;;;18.50;10.43;;;;;;;;;;4976795;28;20042;-85
2021/12/13 05:59:53;;;;;;;18.95;10.40;;;;;;;;;;4976716;28;20529;-85
2021/12/13 06:02:31;;;;;;;16.08;9.35;;;;;;;;;;4978621;28;20045;-85
2021/12/13 06:05:01;;;;;;;18.45;9.35;;;;;;;;;;4981672;28;20058;-84
2021/12/13 06:07:35;;;;;;;16.98;8.93;;;;;;;;;;4981904;28;20129;-85
2021/12/13 06:10:04;;;;;;;17.27;10.80;;;;;;;;;;4976766;28;20133;-85
2021/12/13 06:12:37;;;;;;;15.45;8.20;;;;;;;;;;4984392;28;20134;-85
2021/12/13 06:15:05;;;;;;;13.70;7.63;;;;;;;;;;4981367;28;20042;-85
2021/12/13 06:17:32;;;;;;;11.50;7.25;;;;;;;;;;4989151;28;20414;-85
2021/12/13 06:19:58;;;;;;;18.77;8.00;;;;;;;;;;4981637;28;20144;-86
2021/12/13 06:22:26;;;;;;;17.92;7.93;;;;;;;;;;4981536;28;20081;-86
2021/12/13 06:24:52;;;;;;;17.60;8.15;;;;;;;;;;4984935;28;20090;-85
2021/12/13 06:27:23;;;;;;;20.42;8.57;;;;;;;;;;4985132;28;20070;-85
2021/12/13 06:29:59;;;;;;;16.45;8.88;;;;;;;;;;4983102;28;20075;-85
2021/12/13 06:32:34;;;;;;;15.25;8.95;;;;;;;;;;4976556;28;20113;-85
2021/12/13 06:35:20;;;;;;;16.77;10.07;;;;;;;;;;4975939;28;20089;-85
2021/12/13 06:37:46;;;;;;;16.58;10.20;;;;;;;;;;4978600;28;20045;-85
2021/12/13 06:40:19;;;;;;;16.65;10.23;;;;;;;;;;4977901;28;20093;-85
2021/12/13 06:42:45;;;;;;;18.52;10.48;;;;;;;;;;4968879;28;20070;-86
2021/12/13 06:45:17;;;;;;;19.50;10.68;;;;;;;;;;4970481;28;20051;-85
2021/12/13 06:47:47;;;;;;;20.05;10.63;;;;;;;;;;4962610;28;20066;-85
2021/12/13 06:50:18;;;;;;;19.05;10.75;;;;;;;;;;4969705;28;20101;-85
2021/12/13 06:52:46;;;;;;;21.35;11.50;;;;;;;;;;4972068;28;20035;-85
2021/12/13 06:55:17;;;;;;;18.80;11.00;;;;;;;;;;4974926;28;20055;-85
2021/12/13 06:57:48;;;;;;;20.30;11.63;;;;;;;;;;4981507;28;20039;-86
2021/12/13 07:00:20;;;;;;;23.55;12.10;;;;;;;;;;4974625;28;20047;-85
2021/12/13 07:02:46;;;;;;;20.83;11.50;;;;;;;;;;4977720;28;20130;-85
2021/12/13 07:05:22;;;;;;;24.75;12.35;;;;;;;;;;4971637;28;20061;-87
2021/12/13 07:08:00;;;;;;;23.42;11.93;;;;;;;;;;4979071;28;20038;-86
2021/12/13 07:10:35;;;;;;;23.10;12.57;;;;;;;;;;4971729;28;20057;-84
2021/12/13 07:13:04;;;;;;;25.10;12.88;;;;;;;;;;4981836;28;20117;-85
2021/12/13 07:15:30;;;;;;;22.98;11.65;;;;;;;;;;4981689;28;20050;-84
2021/12/13 07:18:13;;;;;;;29.13;12.93;;;;;;;;;;4987596;28;20046;-84
2021/12/13 07:21:00;;;;;;;22.80;12.27;;;;;;;;;;4970226;28;20102;-86
2021/12/13 07:23:26;;;;;;;23.15;11.82;;;;;;;;;;4967725;28;20050;-85
2021/12/13 07:25:53;;;;;;;24.77;11.90;;;;;;;;;;4973122;28;20046;-85
2021/12/13 07:28:31;;;;;;;23.58;12.15;;;;;;;;;;4980225;28;20082;-85
2021/12/13 07:30:58;;;;;;;17.70;11.23;;;;;;;;;;4985438;28;20054;-85
2021/12/13 07:33:34;;;;;;;27.23;12.40;;;;;;;;;;4983729;28;20041;-85
2021/12/13 07:36:13;;;;;;;18.48;12.45;;;;;;;;;;4976913;28;20062;-85
2021/12/13 07:38:46;;;;;;;28.67;12.05;;;;;;;;;;5008194;28;20045;-85
2021/12/13 07:41:12;;;;;;;22.20;11.45;;;;;;;;;;4998732;28;20038;-85
2021/12/13 07:43:43;;;;;;;23.40;12.90;;;;;;;;;;4990568;28;20053;-87
2021/12/13 07:46:09;;;;;;;21.92;13.20;;;;;;;;;;4987057;28;20061;-83
2021/12/13 07:48:41;;;;;;;25.65;13.75;;;;;;;;;;4989081;28;20061;-83
2021/12/13 07:51:40;;;;;;;22.83;12.57;;;;;;;;;;4989392;28;20038;-83
2021/12/13 07:54:08;;;;;;;14.63;9.30;;;;;;;;;;4983083;28;20065;-83
2021/12/13 07:56:34;;;;;;;27.63;10.30;;;;;;;;;;5009209;28;20414;-82
2021/12/13 07:59:19;;;;;;;27.33;12.18;;;;;;;;;;5002235;28;20057;-83
2021/12/13 08:01:48;;;;;;;19.23;12.05;;;;;;;;;;4965944;28;20051;-82
2021/12/13 08:04:17;;;;;;;19.60;12.40;;;;;;;;;;4969613;28;20066;-83
2021/12/13 08:06:46;;;;;;;21.20;11.25;;;;;;;;;;4971493;28;20101;-83
2021/12/13 08:09:14;;;;;;;24.02;12.90;;;;;;;;;;4970392;28;20035;-83
2021/12/13 08:11:45;;;;;;;21.25;11.52;;;;;;;;;;4971243;28;20074;-83
2021/12/13 08:14:12;;;;;;;25.50;12.65;;;;;;;;;;4953536;28;20082;-84
2021/12/13 08:16:40;;;;;;;17.45;12.07;;;;;;;;;;4968401;28;20093;-83
2021/12/13 08:19:10;;;;;;;21.25;13.90;;;;;;;;;;4968536;28;20097;-82
2021/12/13 08:21:38;;;;;;;19.65;12.10;;;;;;;;;;4971518;28;20054;-83
2021/12/13 08:24:04;;;;;;;19.58;13.25;;;;;;;;;;4989067;28;20054;-82
2021/12/13 08:26:39;;;;;;;21.05;12.80;;;;;;;;;;4987693;28;20050;-82
2021/12/13 08:29:05;;;;;;;;;;;;;;;;;;4989059;28;20065;-82
2021/12/13 08:31:33;;;;;;;21.02;10.88;;;;;;;;;;4989664;28;19930;-82
2021/12/13 08:34:05;;;;;;;22.98;14.90;;;;;;;;;;4983855;28;20049;-83
2021/12/13 08:36:34;;;;;;;21.02;13.60;;;;;;;;;;4971350;28;20046;-83
2021/12/13 08:39:03;;;;;;;21.83;13.05;;;;;;;;;;4967830;28;20046;-83
2021/12/13 08:41:34;;;;;;;20.60;13.95;;;;;;;;;;4989075;28;20042;-83
2021/12/13 08:44:16;;;;;;;21.27;12.65;;;;;;;;;;4987356;28;20064;-83
2021/12/13 08:46:48;;;;;;;23.23;12.68;;;;;;;;;;4983499;28;20058;-83
2021/12/13 08:49:23;;;;;;;24.52;14.43;;;;;;;;;;4989484;28;20107;-82
2021/12/13 08:51:50;;;;;;;21.25;15.23;;;;;;;;;;4986566;28;20832;-83
2021/12/13 08:54:17;;;;;;;28.40;15.15;;;;;;;;;;4988279;28;20050;-83
2021/12/13 08:56:48;;;;;;;24.17;15.73;;;;;;;;;;4987307;28;20601;-82
2021/12/13 08:59:24;;;;;;;28.17;16.88;;;;;;;;;;4967778;28;20082;-83
2021/12/13 09:01:53;;;;;;;24.58;15.65;;;;;;;;;;4969578;28;20055;-83
2021/12/13 09:04:28;;;;;;;26.38;15.85;;;;;;;;;;4968860;28;20379;-83
2021/12/13 09:06:56;;;;;;;24.80;16.02;;;;;;;;;;4976000;28;20042;-83
2021/12/13 09:09:23;;;;;;;25.63;17.55;;;;;;;;;;4987612;28;20097;-83
2021/12/13 09:11:56;;;;;;;28.92;17.25;;;;;;;;;;4983530;28;20049;-82
2021/12/13 09:14:22;;;;;;;26.08;17.17;;;;;;;;;;4970785;28;20077;-83
2021/12/13 09:17:07;;;;;;;28.75;18.35;;;;;;;;;;4976188;28;20446;-81
2021/12/13 09:19:52;;;;;;;25.23;16.67;;;;;;;;;;4982345;28;20380;-83
2021/12/13 09:22:20;;;;;;;29.50;17.98;;;;;;;;;;5003128;28;20478;-83
2021/12/13 09:24:46;;;;;;;25.23;18.05;;;;;;;;;;4977891;28;20469;-83
2021/12/13 09:27:15;;;;;;;27.60;18.92;;;;;;;;;;4983378;28;20034;-83
2021/12/13 09:29:53;;;;;;;32.20;19.05;;;;;;;;;;4982002;28;20042;-82
2021/12/13 09:32:23;;;;;;;30.83;20.25;;;;;;;;;;4982684;28;20506;-82
2021/12/13 09:34:52;;;;;;;33.22;19.73;;;;;;;;;;4975061;28;20126;-83
2021/12/13 09:37:18;;;;;;;32.22;20.67;;;;;;;;;;4973592;28;20139;-82
2021/12/13 09:39:45;;;;;;;28.23;20.02;;;;;;;;;;4979902;28;20133;-83
2021/12/13 09:42:13;;;;;;;30.30;20.45;;;;;;;;;;4985270;28;20042;-82
2021/12/13 09:44:47;;;;;;;31.17;20.02;;;;;;;;;;4978024;28;20043;-81
2021/12/13 09:47:13;;;;;;;;;;;;;;;;;;4968943;28;20062;-81
2021/12/13 09:49:43;;;;;;;33.80;21.52;;;;;;;;;;4973976;28;19922;-81
2021/12/13 09:52:22;;;;;;;27.98;19.67;;;;;;;;;;4974128;28;20038;-81
2021/12/13 09:54:56;;;;;;;29.85;20.40;;;;;;;;;;4981537;28;20512;-81
2021/12/13 09:57:43;;;;;;;30.80;19.67;;;;;;;;;;4972494;28;20049;-81
2021/12/13 10:00:16;;;;;;;27.15;19.40;;;;;;;;;;4944132;28;20548;-81
2021/12/13 10:02:45;;;;;;;32.28;21.83;;;;;;;;;;4981367;28;20056;-81
2021/12/13 10:05:13;;;;;;;26.95;19.73;;;;;;;;;;4979438;28;20046;-81
2021/12/13 10:07:41;;;;;;;30.10;19.20;;;;;;;;;;4984644;28;20038;-81
2021/12/13 10:10:21;;;;;;;33.60;22.30;;;;;;;;;;4978831;28;20463;-81
2021/12/13 10:12:54;;;;;;;32.08;21.50;;;;;;;;;;4985974;28;20038;-81
2021/12/13 10:15:25;;;;;;;35.30;21.83;;;;;;;;;;4986215;28;20058;-81
2021/12/13 10:17:55;;;;;;;31.27;21.50;;;;;;;;;;4982877;28;20077;-81
2021/12/13 10:20:29;;;;;;;32.85;22.52;;;;;;;;;;4982815;28;20042;-81
2021/12/13 10:22:56;;;;;;;28.88;19.02;;;;;;;;;;4978878;28;20106;-81
2021/12/13 10:25:26;;;;;;;28.42;20.92;;;;;;;;;;4987591;28;20074;-81
2021/12/13 10:27:53;;;;;;;35.40;22.25;;;;;;;;;;4986215;28;20107;-81
2021/12/13 10:30:26;;;;;;;27.63;20.25;;;;;;;;;;4986181;28;20109;-81
2021/12/13 10:32:53;;;;;;;32.10;20.63;;;;;;;;;;4983435;28;20054;-81
2021/12/13 10:35:24;;;;;;;29.10;19.88;;;;;;;;;;4985176;28;20673;-81
2021/12/13 10:37:52;;;;;;;32.60;20.77;;;;;;;;;;4986972;28;20046;-81
2021/12/13 10:40:28;;;;;;;25.92;19.58;;;;;;;;;;4982645;28;20073;-80
2021/12/13 10:43:00;;;;;;;27.67;19.67;;;;;;;;;;4987274;28;20050;-81
2021/12/13 10:45:28;;;;;;;25.25;17.75;;;;;;;;;;4984655;28;20045;-82
2021/12/13 10:47:57;;;;;;;37.20;21.30;;;;;;;;;;4981309;28;20077;-82
2021/12/13 10:50:25;;;;;;;29.45;21.05;;;;;;;;;;4968638;28;20483;-81
2021/12/13 10:52:53;;;;;;;29.75;21.10;;;;;;;;;;4984683;28;20054;-81
2021/12/13 10:55:23;;;;;;;26.98;19.05;;;;;;;;;;4986712;28;20038;-81
2021/12/13 10:57:49;;;;;;;27.92;19.48;;;;;;;;;;4964117;28;20184;-82
2021/12/13 11:00:18;;;;;;;24.58;18.10;;;;;;;;;;4986681;28;20102;-81
2021/12/13 11:02:45;;;;;;;27.40;18.50;;;;;;;;;;4984071;28;20078;-81
2021/12/13 11:05:21;;;;;;;28.85;19.20;;;;;;;;;;4986172;28;20078;-80
2021/12/13 11:07:48;;;;;;;22.15;16.60;;;;;;;;;;4986687;28;20418;-79
2021/12/13 11:10:16;;;;;;;27.77;17.65;;;;;;;;;;4986301;28;20051;-79
2021/12/13 11:12:44;;;;;;;26.67;17.00;;;;;;;;;;4976407;28;20502;-79
2021/12/13 11:15:13;;;;;;;25.33;17.15;;;;;;;;;;4987520;28;20050;-80
2021/12/13 11:17:40;;;;;;;27.67;16.58;;;;;;;;;;4975418;28;20572;-80
2021/12/13 11:20:15;;;;;;;22.00;16.85;;;;;;;;;;4977276;28;20905;-79
2021/12/13 11:22:43;;;;;;;21.90;17.02;;;;;;;;;;4983397;28;20053;-79
2021/12/13 11:25:11;;;;;;;23.20;16.33;;;;;;;;;;4987732;28;20192;-80
2021/12/13 11:27:38;;;;;;;21.15;16.38;;;;;;;;;;4983597;28;20159;-80
2021/12/13 11:30:07;;;;;;;20.05;15.07;;;;;;;;;;4986514;28;20798;-80
2021/12/13 11:32:39;;;;;;;23.42;15.18;;;;;;;;;;4988078;28;20080;-83
2021/12/13 11:35:09;;;;;;;19.23;14.02;;;;;;;;;;4989330;28;20506;-79
2021/12/13 11:37:50;;;;;;;20.95;13.60;;;;;;;;;;4987381;28;20035;-79
2021/12/13 11:40:35;;;;;;;16.60;12.27;;;;;;;;;;4987123;28;20425;-80
2021/12/13 11:43:07;;;;;;;18.73;13.25;;;;;;;;;;4990506;28;20137;-80
2021/12/13 11:45:52;;;;;;;20.38;14.68;;;;;;;;;;4979390;28;20055;-81
2021/12/13 11:48:35;;;;;;;17.13;12.23;;;;;;;;;;4977856;28;20063;-79
2021/12/13 11:51:21;;;;;;;22.27;14.55;;;;;;;;;;4976989;28;20592;-79
2021/12/13 11:53:50;;;;;;;21.48;13.27;;;;;;;;;;4972264;28;20117;-79
2021/12/13 11:56:19;;;;;;;17.67;13.43;;;;;;;;;;4974833;28;20150;-79
2021/12/13 11:58:58;;;;;;;23.50;15.05;;;;;;;;;;4979788;28;20146;-79
2021/12/13 12:01:40;;;;;;;19.88;12.93;;;;;;;;;;4975490;28;20046;-79
2021/12/13 12:04:25;;;;;;;22.23;15.00;;;;;;;;;;4982201;28;20144;-79
2021/12/13 12:06:51;;;;;;;18.95;14.07;;;;;;;;;;4979222;28;20055;-81
2021/12/13 12:09:23;;;;;;;20.67;13.90;;;;;;;;;;4954167;28;20051;-79
2021/12/13 12:12:01;;;;;;;25.23;14.90;;;;;;;;;;4975915;28;20126;-80
2021/12/13 12:14:29;;;;;;;22.17;14.70;;;;;;;;;;5015758;28;20073;-82
2021/12/13 12:16:56;;;;;;;20.05;12.68;;;;;;;;;;5005644;28;20449;-81
2021/12/13 12:19:24;;;;;;;20.02;15.20;;;;;;;;;;4970300;28;20054;-80
2021/12/13 12:21:56;;;;;;;18.40;14.35;;;;;;;;;;4984628;28;20041;-82
2021/12/13 12:24:25;;;;;;;22.27;15.85;;;;;;;;;;4970612;28;20521;-81
2021/12/13 12:26:54;;;;;;;20.45;14.80;;;;;;;;;;4956236;28;20638;-81
2021/12/13 12:29:25;;;;;;;22.42;15.68;;;;;;;;;;4975189;28;20494;-81
2021/12/13 12:31:57;;;;;;;30.85;18.23;;;;;;;;;;4984202;28;20073;-81
2021/12/13 12:34:23;;;;;;;19.52;12.88;;;;;;;;;;4986065;28;20121;-80
2021/12/13 12:36:58;;;;;;;21.95;15.65;;;;;;;;;;4975223;28;20045;-82
2021/12/13 12:39:44;;;;;;;24.50;16.02;;;;;;;;;;4985470;28;20412;-81
2021/12/13 12:42:25;;;;;;;23.27;15.95;;;;;;;;;;4984786;28;20039;-82
2021/12/13 12:44:54;;;;;;;32.33;18.33;;;;;;;;;;4974754;28;20181;-81
2021/12/13 12:47:36;;;;;;;25.02;17.33;;;;;;;;;;4983282;28;20533;-79
2021/12/13 12:50:17;;;;;;;26.40;17.15;;;;;;;;;;4983885;28;20082;-80
2021/12/13 12:52:52;;;;;;;25.60;17.92;;;;;;;;;;4988014;28;20086;-79
2021/12/13 12:55:20;;;;;;;28.30;17.70;;;;;;;;;;4985382;28;20165;-80
2021/12/13 12:57:46;;;;;;;32.35;18.70;;;;;;;;;;4989848;28;20056;-79
2021/12/13 13:00:13;;;;;;;26.80;17.58;;;;;;;;;;5007375;28;20120;-80
2021/12/13 13:02:39;;;;;;;23.48;17.17;;;;;;;;;;4990944;28;20038;-79
2021/12/13 13:05:09;;;;;;;28.05;19.00;;;;;;;;;;4979902;28;20521;-80
2021/12/13 13:07:39;;;;;;;33.78;19.90;;;;;;;;;;4976211;28;20054;-80
2021/12/13 13:10:20;;;;;;;28.40;18.15;;;;;;;;;;4974478;28;20089;-82
2021/12/13 13:12:47;;;;;;;28.95;19.17;;;;;;;;;;4970268;28;20045;-79
2021/12/13 13:15:18;;;;;;;28.77;18.77;;;;;;;;;;4968789;28;20046;-79
2021/12/13 13:17:57;;;;;;;26.77;17.35;;;;;;;;;;4968361;28;20479;-81
2021/12/13 13:20:26;;;;;;;33.00;19.98;;;;;;;;;;4972982;28;20039;-80
2021/12/13 13:22:53;;;;;;;28.08;18.75;;;;;;;;;;4969390;28;20161;-79
2021/12/13 13:25:24;;;;;;;29.73;19.15;;;;;;;;;;4980996;28;20038;-79
2021/12/13 13:27:51;;;;;;;24.00;17.42;;;;;;;;;;4980985;28;20030;-79
2021/12/13 13:30:40;;;;;;;30.00;18.63;;;;;;;;;;4983186;28;20129;-80
2021/12/13 13:33:07;;;;;;;36.88;21.10;;;;;;;;;;4958409;28;20066;-79
2021/12/13 13:35:33;;;;;;;31.83;20.42;;;;;;;;;;4979060;28;20078;-79
2021/12/13 13:37:59;;;;;;;35.55;19.67;;;;;;;;;;4983496;28;20061;-80
2021/12/13 13:40:27;;;;;;;33.72;19.77;;;;;;;;;;4984254;28;20568;-80
2021/12/13 13:42:59;;;;;;;30.65;19.73;;;;;;;;;;4977933;28;20047;-79
2021/12/13 13:45:27;;;;;;;29.52;17.67;;;;;;;;;;4970603;28;20038;-79
2021/12/13 13:47:58;;;;;;;26.67;18.88;;;;;;;;;;4968737;28;20047;-79
2021/12/13 13:50:35;;;;;;;25.65;17.40;;;;;;;;;;4977959;28;20166;-78
2021/12/13 13:53:25;;;;;;;29.98;18.80;;;;;;;;;;4985281;28;20041;-82
2021/12/13 13:55:54;;;;;;;28.13;18.52;;;;;;;;;;4968902;28;20066;-79
2021/12/13 13:58:26;;;;;;;29.25;17.83;;;;;;;;;;4967630;28;20469;-80
2021/12/13 14:00:52;;;;;;;32.03;18.50;;;;;;;;;;4977279;28;20086;-81
2021/12/13 14:03:18;;;;;;;30.23;17.95;;;;;;;;;;4974033;28;20053;-80
2021/12/13 14:05:45;;;;;;;28.23;18.52;;;;;;;;;;4970730;28;20046;-80
2021/12/13 14:08:19;;;;;;;30.95;19.00;;;;;;;;;;4975327;28;20035;-80
2021/12/13 14:10:46;;;;;;;33.38;19.02;;;;;;;;;;4973066;28;20046;-80
2021/12/13 14:13:12;;;;;;;28.67;18.85;;;;;;;;;;4974324;28;20507;-79
2021/12/13 14:15:41;;;;;;;31.65;17.50;;;;;;;;;;4981946;28;20137;-81
2021/12/13 14:18:07;;;;;;;34.03;19.10;;;;;;;;;;4978731;28;20537;-82
2021/12/13 14:20:33;;;;;;;28.45;18.50;;;;;;;;;;4970625;28;20043;-79
2021/12/13 14:23:20;;;;;;;30.17;19.48;;;;;;;;;;4974748;28;20472;-81
2021/12/13 14:25:48;;;;;;;29.05;18.92;;;;;;;;;;4978756;28;20046;-81
2021/12/13 14:28:20;;;;;;;31.02;17.25;;;;;;;;;;4974764;28;20515;-84
2021/12/13 14:30:48;;;;;;;29.90;18.98;;;;;;;;;;4979090;28;20177;-81
2021/12/13 14:33:20;;;;;;;27.00;17.58;;;;;;;;;;4975688;28;20130;-81
2021/12/13 14:35:52;;;;;;;27.55;18.13;;;;;;;;;;4980616;28;20413;-83
2021/12/13 14:38:18;;;;;;;25.25;17.63;;;;;;;;;;4977761;28;20073;-81
2021/12/13 14:40:51;;;;;;;35.50;19.55;;;;;;;;;;4977986;28;20043;-82
2021/12/13 14:43:23;;;;;;;27.13;18.55;;;;;;;;;;4981669;28;20148;-80
2021/12/13 14:45:50;;;;;;;28.90;17.30;;;;;;;;;;4998687;28;20057;-81
2021/12/13 14:48:18;;;;;;;25.60;17.95;;;;;;;;;;4986339;28;20470;-82